createdAt,value
2016-01-22T00:00:07.404Z,80.77
2016-01-22T00:01:07.368Z,80.87
2016-01-22T00:02:07.361Z,80.87
2016-01-22T00:03:07.359Z,81.15
2016-01-22T00:04:07.350Z,81.34
2016-01-22T00:05:07.349Z,81.43
2016-01-22T09:03:02.840Z,76.66
2016-01-22T09:04:02.608Z,76.66
2016-01-22T09:05:02.597Z,76.47
2016-01-22T09:06:02.585Z,75.81
2016-01-22T09:07:02.592Z,75.81
2016-01-22T09:08:02.566Z,75.62
2016-01-22T09:09:02.537Z,75.34
2016-01-22T09:10:02.540Z,74.87
2016-01-22T09:11:02.529Z,75.34
2016-01-22T09:12:02.533Z,74.77
2016-01-22T09:13:02.526Z,74.87
2016-01-22T09:14:02.499Z,74.49
2016-01-22T09:15:02.488Z,74.49
2016-01-22T09:16:02.480Z,74.4
2016-01-22T09:17:02.483Z,74.3
2016-01-22T09:18:02.460Z,74.58
2016-01-22T09:19:02.456Z,74.77
2016-01-22T09:20:02.460Z,74.3
2016-01-22T09:21:02.448Z,74.4
2016-01-22T09:22:02.437Z,73.83
2016-01-22T09:23:44.055Z,72.98
2016-01-22T09:24:44.046Z,72.98
2016-01-22T09:25:44.035Z,72.6
2016-01-22T09:26:44.006Z,72.73
2016-01-22T09:27:44.028Z,72.45
2016-01-22T09:28:44.002Z,72.83
2016-01-22T09:29:43.991Z,72.45
2016-01-22T09:30:43.999Z,72.26
2016-01-22T09:31:43.987Z,72.55
2016-01-22T09:32:43.977Z,72.64
2016-01-22T09:33:43.966Z,72.64
2016-01-22T09:34:43.975Z,72.45
2016-01-22T09:35:43.965Z,72.92
2016-01-22T09:36:43.968Z,72.92
2016-01-22T09:37:43.972Z,73.74
2016-01-22T09:38:43.945Z,72.73
2016-01-22T09:39:43.935Z,72.73
2016-01-22T09:40:43.925Z,72.83
2016-01-22T09:41:43.919Z,73.02
2016-01-22T09:42:43.908Z,73.02
2016-01-22T09:43:43.912Z,73.02
2016-01-22T09:44:43.899Z,72.45
2016-01-22T09:45:43.902Z,73.21
2016-01-22T09:46:43.893Z,72.83
2016-01-22T09:47:43.886Z,72.83
2016-01-22T09:48:43.876Z,72.45
2016-01-22T09:49:43.881Z,72.55
2016-01-22T09:50:43.869Z,72.55
2016-01-22T09:51:43.857Z,72.17
2016-01-22T09:52:43.862Z,72.83
2016-01-22T09:53:43.902Z,72.07
2016-01-22T09:54:43.842Z,72.17
2016-01-22T09:55:43.832Z,71.79
2016-01-22T09:56:43.820Z,71.69
2016-01-22T09:57:43.825Z,72.07
2016-01-22T09:58:43.830Z,71.31
2016-01-22T09:59:43.820Z,71.69
2016-01-22T10:00:43.809Z,71.88
2016-01-22T10:01:43.813Z,71.03
2016-01-22T10:02:43.801Z,71.12
2016-01-22T10:03:43.792Z,71.88
2016-01-22T10:04:43.782Z,71.79
2016-01-22T10:05:43.785Z,71.6
2016-01-22T10:06:43.773Z,71.6
2016-01-22T10:07:43.767Z,71.12
2016-01-22T10:08:43.771Z,71.12
2016-01-22T10:09:43.761Z,71.22
2016-01-22T10:10:43.738Z,71.69
2016-01-22T10:11:43.743Z,71.41
2016-01-22T10:12:43.731Z,71.79
2016-01-22T10:13:43.735Z,71.22
2016-01-22T10:14:43.724Z,71.31
2016-01-22T10:15:43.716Z,70.65
2016-01-22T10:16:43.706Z,70.65
2016-01-22T10:17:43.740Z,70.65
2016-01-22T10:18:43.697Z,70.28
2016-01-22T10:19:43.717Z,70.65
2016-01-22T10:20:43.689Z,70.09
2016-01-22T10:21:43.694Z,69.71
2016-01-22T10:22:43.686Z,70.28
2016-01-22T10:23:43.674Z,70.37
2016-01-22T10:24:43.664Z,70.47
2016-01-22T10:25:43.668Z,70.18
2016-01-22T10:26:43.656Z,70
2016-01-22T10:27:43.661Z,69.9
2016-01-22T10:28:43.653Z,70.09
2016-01-22T10:29:44.097Z,70.18
2016-01-22T10:30:43.648Z,69.9
2016-01-22T10:31:43.635Z,70.09
2016-01-22T10:32:43.639Z,70.18
2016-01-22T10:33:43.631Z,69.93
2016-01-22T10:34:43.618Z,69.81
2016-01-22T10:35:43.606Z,69.46
2016-01-22T10:36:43.612Z,69.56
2016-01-22T10:37:43.601Z,69.56
2016-01-22T10:38:43.606Z,69.65
2016-01-22T10:39:43.595Z,68.99
2016-01-22T10:40:43.583Z,69.37
2016-01-22T10:41:43.587Z,68.9
2016-01-22T10:42:43.575Z,69.74
2016-01-22T10:43:43.565Z,69.27
2016-01-22T10:44:43.556Z,69.09
2016-01-22T10:45:43.564Z,69.46
2016-01-22T10:46:43.567Z,69.27
2016-01-22T10:47:43.572Z,68.52
2016-01-22T10:48:43.576Z,69.74
2016-01-22T10:49:43.547Z,69.18
2016-01-22T10:50:43.536Z,68.9
2016-01-22T10:51:43.544Z,69.09
2016-01-22T10:52:43.532Z,68.52
2016-01-22T10:53:43.509Z,68.52
2016-01-22T10:54:43.524Z,69.18
2016-01-22T10:55:43.516Z,68.8
2016-01-22T10:56:43.505Z,69.09
2016-01-22T10:57:43.508Z,69.09
2016-01-22T10:58:43.498Z,68.8
2016-01-22T10:59:43.501Z,68.9
2016-01-22T11:00:43.490Z,69.09
2016-01-22T11:01:43.495Z,68.99
2016-01-22T11:02:43.467Z,68.61
2016-01-22T11:03:43.506Z,68.8
2016-01-22T11:04:43.471Z,68.71
2016-01-22T11:05:44.755Z,68.61
2016-01-22T11:06:43.464Z,68.61
2016-01-22T11:07:43.466Z,68.61
2016-01-22T11:08:43.428Z,69.09
2016-01-22T11:09:43.430Z,68.8
2016-01-22T11:10:43.429Z,68.61
2016-01-22T11:11:43.513Z,68.33
2016-01-22T11:12:43.422Z,67.57
2016-01-22T11:13:43.424Z,67.57
2016-01-22T11:14:43.427Z,67.57
2016-01-22T11:15:43.431Z,67.95
2016-01-22T11:16:43.391Z,68.04
2016-01-22T11:17:43.398Z,68.23
2016-01-22T11:18:43.391Z,67.95
2016-01-22T11:19:43.394Z,67.66
2016-01-22T11:20:43.369Z,67.57
2016-01-22T11:21:43.374Z,67.85
2016-01-22T11:22:43.378Z,66.75
2016-01-22T11:23:43.368Z,67.6
2016-01-22T11:24:43.355Z,66.94
2016-01-22T11:25:43.422Z,66.75
2016-01-22T11:26:43.378Z,66.75
2016-01-22T11:27:43.339Z,66.28
2016-01-22T11:28:43.342Z,66.56
2016-01-22T11:29:43.333Z,66.66
2016-01-22T11:30:43.321Z,66.56
2016-01-22T11:31:43.324Z,66.19
2016-01-22T11:32:43.328Z,66.19
2016-01-22T11:33:43.316Z,66.28
2016-01-22T11:34:43.320Z,66.19
2016-01-22T11:35:43.323Z,66.19
2016-01-22T11:36:43.311Z,66.09
2016-01-22T11:37:43.317Z,65.72
2016-01-22T11:38:43.305Z,65.72
2016-01-22T11:39:43.312Z,65.72
2016-01-22T11:40:43.302Z,65.15
2016-01-22T11:41:43.289Z,65.53
2016-01-22T11:42:43.293Z,65.72
2016-01-22T11:43:43.280Z,65.15
2016-01-22T11:44:43.116Z,64.96
2016-01-22T11:45:43.260Z,64.77
2016-01-22T11:46:43.263Z,65.43
2016-01-22T11:47:43.251Z,65.72
2016-01-22T11:48:43.256Z,65.62
2016-01-22T11:49:43.250Z,65.53
2016-01-22T11:50:43.254Z,65.24
2016-01-22T11:51:43.242Z,64.96
2016-01-22T11:52:43.278Z,65.34
2016-01-22T11:53:43.235Z,65.43
2016-01-22T11:54:43.226Z,65.34
2016-01-22T11:55:43.230Z,65.53
2016-01-22T11:56:43.219Z,65.05
2016-01-22T11:57:43.222Z,64.86
2016-01-22T11:58:43.226Z,64.77
2016-01-22T11:59:43.217Z,64.48
2016-01-22T12:00:43.206Z,64.86
2016-01-22T12:01:43.210Z,65.34
2016-01-22T12:02:43.199Z,65.15
2016-01-22T12:03:43.188Z,64.96
2016-01-22T12:04:43.192Z,64.77
2016-01-22T12:05:43.180Z,64.67
2016-01-22T12:06:43.184Z,64.77
2016-01-22T12:07:43.187Z,64.58
2016-01-22T12:08:43.176Z,64.67
2016-01-22T12:09:43.164Z,64.86
2016-01-22T12:10:43.174Z,64.77
2016-01-22T12:11:43.161Z,64.86
2016-01-22T12:12:43.151Z,64.29
2016-01-22T12:13:43.140Z,63.73
2016-01-22T12:14:43.159Z,63.73
2016-01-22T12:15:43.148Z,63.73
2016-01-22T12:16:43.152Z,63.73
2016-01-22T12:17:43.126Z,63.76
2016-01-22T12:18:43.131Z,64.23
2016-01-22T12:19:43.162Z,64.04
2016-01-22T12:20:43.133Z,63.57
2016-01-22T12:21:43.128Z,63.39
2016-01-22T12:22:43.119Z,63.29
2016-01-22T12:23:43.125Z,63.48
2016-01-22T12:24:43.506Z,63.76
2016-01-22T12:25:43.119Z,63.85
2016-01-22T12:26:43.106Z,63.48
2016-01-22T12:27:43.110Z,63.29
2016-01-22T12:28:43.114Z,63.1
2016-01-22T12:29:43.103Z,63.76
2016-01-22T12:30:43.108Z,64.04
2016-01-22T12:31:43.082Z,63.76
2016-01-22T12:32:43.085Z,63.67
2016-01-22T12:33:43.449Z,63.29
2016-01-22T12:34:43.092Z,62.91
2016-01-22T12:35:43.100Z,63.01
2016-01-22T12:36:43.106Z,62.82
2016-01-22T12:37:43.066Z,62.53
2016-01-22T12:38:43.054Z,62.91
2016-01-22T12:39:43.058Z,63.2
2016-01-22T12:40:43.046Z,63.48
2016-01-22T12:41:43.064Z,63.01
2016-01-22T12:42:43.057Z,62.63
2016-01-22T12:43:43.044Z,62.72
2016-01-22T12:44:43.049Z,63.01
2016-01-22T12:45:43.056Z,63.76
2016-01-22T12:46:43.029Z,63.01
2016-01-22T12:47:43.034Z,63.29
2016-01-22T12:48:43.021Z,63.2
2016-01-22T12:49:43.026Z,62.44
2016-01-22T12:50:43.008Z,62.53
2016-01-22T12:51:42.997Z,62.44
2016-01-22T12:52:42.973Z,62.25
2016-01-22T12:53:42.962Z,62.06
2016-01-22T12:54:42.967Z,62.25
2016-01-22T12:55:42.929Z,62.06
2016-01-22T12:56:42.927Z,62.34
2016-01-22T12:57:42.897Z,61.87
2016-01-22T12:58:42.899Z,62.15
2016-01-22T12:59:42.918Z,62.06
2016-01-22T13:00:43.183Z,61.49
2016-01-22T13:01:43.123Z,62.25
2016-01-22T13:02:43.064Z,62.25
2016-01-22T13:03:43.105Z,61.96
2016-01-22T13:04:42.903Z,61.58
2016-01-22T13:05:43.016Z,62.25
2016-01-22T13:06:43.053Z,62.25
2016-01-22T13:07:43.039Z,62.44
2016-01-22T13:08:43.105Z,62.91
2016-01-22T13:09:43.154Z,62.72
2016-01-22T13:10:42.987Z,62.44
2016-01-22T13:11:43.072Z,62.53
2016-01-22T13:12:43.247Z,62.34
2016-01-22T13:13:42.833Z,62.63
2016-01-22T13:14:42.822Z,62.53
2016-01-22T13:15:42.825Z,62.53
2016-01-22T13:16:42.829Z,62.63
2016-01-22T13:17:42.818Z,62.34
2016-01-22T13:18:42.805Z,62.25
2016-01-22T13:19:42.808Z,62.15
2016-01-22T13:20:42.812Z,62.15
2016-01-22T13:21:42.796Z,61.96
2016-01-22T13:22:42.801Z,62.06
2016-01-22T13:23:42.805Z,61.87
2016-01-22T13:24:42.795Z,61.87
2016-01-22T13:25:42.798Z,61.58
2016-01-22T13:26:43.129Z,62.25
2016-01-22T13:27:42.775Z,61.58
2016-01-22T13:28:42.781Z,61.68
2016-01-22T13:29:42.785Z,61.77
2016-01-22T13:30:42.772Z,61.96
2016-01-22T13:31:42.761Z,61.87
2016-01-22T13:32:42.766Z,61.68
2016-01-22T13:33:42.769Z,61.68
2016-01-22T13:34:42.774Z,61.77
2016-01-22T13:35:42.748Z,61.58
2016-01-22T13:36:43.754Z,61.11
2016-01-22T13:37:42.744Z,61.68
2016-01-22T13:38:42.748Z,61.77
2016-01-22T13:39:42.736Z,61.96
2016-01-22T13:40:42.740Z,61.68
2016-01-22T13:41:42.728Z,61.87
2016-01-22T13:42:42.780Z,62.15
2016-01-22T13:43:42.738Z,62.06
2016-01-22T13:44:42.726Z,61.87
2016-01-22T13:45:42.733Z,61.77
2016-01-22T13:46:42.720Z,61.21
2016-01-22T13:47:42.711Z,61.87
2016-01-22T13:48:42.714Z,61.96
2016-01-22T13:49:42.703Z,61.96
2016-01-22T13:50:42.693Z,61.58
2016-01-22T13:51:42.706Z,61.87
2016-01-22T13:52:42.694Z,61.87
2016-01-22T13:53:42.697Z,62.15
2016-01-22T13:54:42.689Z,61.87
2016-01-22T13:55:42.676Z,61.96
2016-01-22T13:56:42.838Z,61.68
2016-01-22T13:57:42.672Z,61.68
2016-01-22T13:58:42.675Z,61.58
2016-01-22T13:59:42.680Z,61.68
2016-01-22T14:00:42.668Z,62.34
2016-01-22T14:01:42.657Z,62.25
2016-01-22T14:02:42.661Z,62.06
2016-01-22T14:03:42.651Z,61.21
2016-01-22T14:04:42.655Z,61.68
2016-01-22T14:05:42.658Z,61.58
2016-01-22T14:06:42.662Z,61.87
2016-01-22T14:07:42.638Z,61.87
2016-01-22T14:08:42.643Z,61.87
2016-01-22T14:09:42.629Z,61.96
2016-01-22T14:10:42.632Z,61.87
2016-01-22T14:11:42.621Z,61.87
2016-01-22T14:12:42.619Z,61.77
2016-01-22T14:13:42.608Z,62.15
2016-01-22T14:14:42.611Z,61.96
2016-01-22T14:15:42.601Z,62.06
2016-01-22T14:16:42.604Z,61.58
2016-01-22T14:17:42.593Z,61.96
2016-01-22T14:18:42.597Z,62.34
2016-01-22T14:19:42.585Z,62.15
2016-01-22T14:20:42.603Z,62.91
2016-01-22T14:21:42.594Z,62.91
2016-01-22T14:22:42.415Z,62.15
2016-01-22T14:23:42.575Z,62.63
2016-01-22T14:24:42.580Z,62.72
2016-01-22T14:25:42.569Z,62.63
2016-01-22T14:26:42.604Z,63.2
2016-01-22T14:27:42.561Z,63.39
2016-01-22T14:28:42.566Z,63.1
2016-01-22T14:29:42.554Z,63.2
2016-01-22T14:30:42.542Z,63.2
2016-01-22T14:31:42.562Z,63.95
2016-01-22T14:32:42.537Z,63.95
2016-01-22T14:33:42.527Z,63.76
2016-01-22T14:34:42.767Z,63.76
2016-01-22T14:35:42.912Z,63.57
2016-01-22T14:36:42.727Z,63.95
2016-01-22T14:37:42.874Z,63.95
2016-01-22T14:38:42.707Z,64.52
2016-01-22T14:39:42.712Z,64.42
2016-01-22T14:40:42.622Z,64.23
2016-01-22T14:41:42.688Z,64.14
2016-01-22T14:42:42.787Z,64.23
2016-01-22T14:43:43.135Z,64.61
2016-01-22T14:44:43.169Z,64.52
2016-01-22T14:45:42.594Z,64.52
2016-01-22T14:46:42.598Z,64.8
2016-01-22T14:47:42.806Z,64.8
2016-01-22T14:48:42.736Z,64.8
2016-01-22T14:49:42.989Z,64.8
2016-01-22T14:50:42.745Z,64.71
2016-01-22T14:51:42.685Z,65.09
2016-01-22T14:52:42.671Z,64.8
2016-01-22T14:53:42.674Z,64.99
2016-01-22T14:54:42.836Z,64.9
2016-01-22T14:55:42.778Z,65.09
2016-01-22T14:56:42.688Z,64.9
2016-01-22T14:57:42.569Z,65.28
2016-01-22T14:58:42.698Z,65.75
2016-01-22T14:59:42.405Z,65.37
2016-01-22T15:00:42.409Z,65.28
2016-01-22T15:01:42.898Z,65.15
2016-01-22T15:02:42.402Z,65.43
2016-01-22T15:03:42.392Z,65.84
2016-01-22T15:04:42.382Z,65.91
2016-01-22T15:05:42.384Z,65.43
2016-01-22T15:06:42.388Z,66.09
2016-01-22T15:07:42.408Z,66
2016-01-22T15:08:42.364Z,65.72
2016-01-22T15:09:42.196Z,66.19
2016-01-22T15:10:42.359Z,66.19
2016-01-22T15:11:42.362Z,66.75
2016-01-22T15:12:42.354Z,67.22
2016-01-22T15:13:42.329Z,66.94
2016-01-22T15:14:42.335Z,66.75
2016-01-22T15:15:42.326Z,67.41
2016-01-22T15:16:42.345Z,67.32
2016-01-22T15:17:42.318Z,67.13
2016-01-22T15:18:42.322Z,67.41
2016-01-22T15:19:42.327Z,67.7
2016-01-22T15:20:42.319Z,67.51
2016-01-22T15:21:42.416Z,67.7
2016-01-22T15:22:42.373Z,68.08
2016-01-22T15:23:42.298Z,68.27
2016-01-22T15:24:42.334Z,68.17
2016-01-22T15:25:42.275Z,68.27
2016-01-22T15:26:42.392Z,67.98
2016-01-22T15:27:42.381Z,68.65
2016-01-22T15:28:42.371Z,68.27
2016-01-22T15:29:42.268Z,68.74
2016-01-22T15:30:42.256Z,68.65
2016-01-22T15:31:42.260Z,68.93
2016-01-22T15:32:42.247Z,68.93
2016-01-22T15:33:42.236Z,69.02
2016-01-22T15:34:42.255Z,69.21
2016-01-22T15:35:42.258Z,69.12
2016-01-22T15:36:42.232Z,68.93
2016-01-22T15:37:42.236Z,69.12
2016-01-22T15:38:42.239Z,69.31
2016-01-22T15:39:42.212Z,69.12
2016-01-22T15:40:42.216Z,69.49
2016-01-22T15:41:42.205Z,69.27
2016-01-22T15:42:42.209Z,69.65
2016-01-22T15:43:42.197Z,69.56
2016-01-22T15:44:42.045Z,69.56
2016-01-22T15:45:42.191Z,69.56
2016-01-22T15:46:42.179Z,69.84
2016-01-22T15:47:42.170Z,70.03
2016-01-22T15:48:42.174Z,69.84
2016-01-22T15:49:42.177Z,70.4
2016-01-22T15:50:42.150Z,70.4
2016-01-22T15:51:42.155Z,70.31
2016-01-22T15:52:42.147Z,70.59
2016-01-22T15:53:42.151Z,70.31
2016-01-22T15:54:42.375Z,70.4
2016-01-22T15:55:42.128Z,70.4
2016-01-22T15:56:42.133Z,70.21
2016-01-22T15:57:42.124Z,70.69
2016-01-22T15:58:42.114Z,70.97
2016-01-22T15:59:42.103Z,70.97
2016-01-22T16:00:42.107Z,70.78
2016-01-22T16:01:42.094Z,70.78
2016-01-22T16:02:42.100Z,70.69
2016-01-22T16:03:42.091Z,70.78
2016-01-22T16:04:42.095Z,71.16
2016-01-22T16:05:42.082Z,70.97
2016-01-22T16:06:42.086Z,71.35
2016-01-22T16:07:42.091Z,71.64
2016-01-22T16:08:42.081Z,71.73
2016-01-22T16:09:42.055Z,71.54
2016-01-22T16:10:42.042Z,71.83
2016-01-22T16:11:42.046Z,72.58
2016-01-22T16:12:42.049Z,72.86
2016-01-22T16:13:42.039Z,72.96
2016-01-22T16:14:42.059Z,72.86
2016-01-22T16:15:42.018Z,73.05
2016-01-22T16:16:42.007Z,73.05
2016-01-22T16:17:42.027Z,72.96
2016-01-22T16:18:42.000Z,73.14
2016-01-22T16:19:42.020Z,72.67
2016-01-22T16:20:41.991Z,72.77
2016-01-22T16:21:41.981Z,72.58
2016-01-22T16:22:41.987Z,72.77
2016-01-22T16:23:41.974Z,72.96
2016-01-22T16:24:41.964Z,72.67
2016-01-22T16:25:41.967Z,73.14
2016-01-22T16:26:41.956Z,72.67
2016-01-22T16:27:42.321Z,72.58
2016-01-22T16:28:41.952Z,72.96
2016-01-22T16:29:41.973Z,72.77
2016-01-22T16:30:41.931Z,72.67
2016-01-22T16:31:41.935Z,72.86
2016-01-22T16:32:41.925Z,73.33
2016-01-22T16:33:41.912Z,73.33
2016-01-22T16:34:41.915Z,73.24
2016-01-22T16:35:41.903Z,73.52
2016-01-22T16:36:41.907Z,73.9
2016-01-22T16:37:41.895Z,73.9
2016-01-22T16:38:41.885Z,73.9
2016-01-22T16:39:41.888Z,73.62
2016-01-22T16:40:41.861Z,73.43
2016-01-22T16:41:41.882Z,74.09
2016-01-22T16:42:41.854Z,74.09
2016-01-22T16:43:41.858Z,73.81
2016-01-22T16:44:41.878Z,73.52
2016-01-22T16:45:41.834Z,73.52
2016-01-22T16:46:41.838Z,73.52
2016-01-22T16:47:41.825Z,72.86
2016-01-22T16:48:41.815Z,73.14
2016-01-22T16:49:41.820Z,73.52
2016-01-22T16:50:41.809Z,73.33
2016-01-22T16:51:41.815Z,73.62
2016-01-22T16:52:41.802Z,73.52
2016-01-22T16:53:41.826Z,73.33
2016-01-22T16:54:41.797Z,73.24
2016-01-22T16:55:41.817Z,73.52
2016-01-22T16:56:42.308Z,72.67
2016-01-22T16:57:41.764Z,73.52
2016-01-22T16:58:41.769Z,72.58
2016-01-22T16:59:41.757Z,72.96
2016-01-22T17:00:41.745Z,72.86
2016-01-22T17:01:41.799Z,72.58
2016-01-22T17:02:41.725Z,72.58
2016-01-22T17:03:41.728Z,72.67
2016-01-22T17:04:41.826Z,72.67
2016-01-22T17:05:41.877Z,72.49
2016-01-22T17:06:41.711Z,72.49
2016-01-22T17:07:41.702Z,72.96
2016-01-22T17:08:41.705Z,72.67
2016-01-22T17:09:41.696Z,72.67
2016-01-22T17:10:41.683Z,72.96
2016-01-22T17:11:41.673Z,72.77
2016-01-22T17:12:41.663Z,72.49
2016-01-22T17:13:41.667Z,72.11
2016-01-22T17:14:41.654Z,71.92
2016-01-22T17:15:41.644Z,72.2
2016-01-22T17:16:41.678Z,72.96
2016-01-22T17:17:41.638Z,72.77
2016-01-22T17:18:41.644Z,72.49
2016-01-22T17:19:41.631Z,72.39
2016-01-22T17:20:41.619Z,72.3
2016-01-22T17:21:41.611Z,72.58
2016-01-22T17:22:41.599Z,72.3
2016-01-22T17:23:41.596Z,72.96
2016-01-22T17:24:41.584Z,73.05
2016-01-22T17:25:41.588Z,72.67
2016-01-22T17:26:41.577Z,72.67
2016-01-22T17:27:41.599Z,73.33
2016-01-22T17:28:41.571Z,72.67
2016-01-22T17:29:41.545Z,73.05
2016-01-22T17:30:41.548Z,73.43
2016-01-22T17:31:41.538Z,73.43
2016-01-22T17:32:41.543Z,73.43
2016-01-22T17:33:41.518Z,73.52
2016-01-22T17:34:41.552Z,73.52
2016-01-22T17:35:41.518Z,73.81
2016-01-22T17:36:41.506Z,74
2016-01-22T17:37:41.495Z,74
2016-01-22T17:38:41.498Z,74.47
2016-01-22T17:39:41.489Z,74.57
2016-01-22T17:40:41.492Z,74.76
2016-01-22T17:41:41.481Z,75.51
2016-01-22T17:42:41.469Z,75.79
2016-01-22T17:43:41.662Z,75.51
2016-01-22T17:44:41.479Z,75.19
2016-01-22T17:45:41.529Z,75.32
2016-01-22T17:46:41.438Z,75.09
2016-01-22T17:47:41.461Z,75.38
2016-01-22T17:48:41.435Z,75.38
2016-01-22T17:49:41.423Z,75.09
2016-01-22T17:50:41.412Z,75.28
2016-01-22T17:51:41.402Z,75.32
2016-01-22T17:52:41.408Z,74.66
2016-01-22T17:53:41.401Z,74.85
2016-01-22T17:54:41.436Z,74.71
2016-01-22T17:55:41.392Z,75.42
2016-01-22T17:56:41.380Z,75.51
2016-01-22T17:57:41.384Z,74.76
2016-01-22T17:58:41.372Z,74.57
2016-01-22T17:59:41.360Z,74.57
2016-01-22T18:00:41.366Z,74.47
2016-01-22T18:01:41.338Z,74.47
2016-01-22T18:02:41.341Z,74.66
2016-01-22T18:03:41.328Z,75.6
2016-01-22T18:04:41.332Z,75.32
2016-01-22T18:05:41.304Z,75.32
2016-01-22T18:06:41.639Z,75.23
2016-01-22T18:07:41.298Z,75.28
2016-01-22T18:08:41.302Z,75.47
2016-01-22T18:09:41.275Z,75.57
2016-01-22T18:10:41.278Z,75.57
2016-01-22T18:11:41.267Z,75.28
2016-01-22T18:12:41.270Z,75
2016-01-22T18:13:41.258Z,75.38
2016-01-22T18:14:41.262Z,75.38
2016-01-22T18:15:41.250Z,75.66
2016-01-22T18:16:41.256Z,75.95
2016-01-22T18:17:41.245Z,76.14
2016-01-22T18:18:41.234Z,76.23
2016-01-22T18:19:41.222Z,75.95
2016-01-22T18:20:41.241Z,76.42
2016-01-22T18:21:41.229Z,76.51
2016-01-22T18:22:41.204Z,76.42
2016-01-22T18:23:41.192Z,76.42
2016-01-22T18:24:41.387Z,76.51
2016-01-22T18:25:41.175Z,76.42
2016-01-22T18:26:41.177Z,76.42
2016-01-22T18:27:41.181Z,76.61
2016-01-22T18:28:41.169Z,76.61
2016-01-22T18:29:41.157Z,77.08
2016-01-22T18:30:41.161Z,77.36
2016-01-22T18:31:41.149Z,77.36
2016-01-22T18:32:41.169Z,77.45
2016-01-22T18:33:41.143Z,76.98
2016-01-22T18:34:41.115Z,77.36
2016-01-22T18:35:41.119Z,77.36
2016-01-22T18:36:41.124Z,77.08
2016-01-22T18:37:41.114Z,76.89
2016-01-22T18:38:41.102Z,77.08
2016-01-22T18:39:41.091Z,77.08
2016-01-22T18:40:41.111Z,76.89
2016-01-22T18:41:41.068Z,77.64
2016-01-22T18:42:41.072Z,77.36
2016-01-22T18:43:41.075Z,77.45
2016-01-22T18:44:41.049Z,77.55
2016-01-22T18:45:41.053Z,77.17
2016-01-22T18:46:41.057Z,77.17
2016-01-22T18:47:41.047Z,77.74
2016-01-22T18:48:41.051Z,78.12
2016-01-22T18:49:41.022Z,77.93
2016-01-22T18:50:41.013Z,77.83
2016-01-22T18:51:41.016Z,77.93
2016-01-22T18:52:41.019Z,77.93
2016-01-22T18:53:40.991Z,78.12
2016-01-22T18:54:41.027Z,77.55
2016-01-22T18:55:40.984Z,77.83
2016-01-22T18:56:41.002Z,77.93
2016-01-22T18:57:40.976Z,77.55
2016-01-22T18:58:40.966Z,78.12
2016-01-22T18:59:40.954Z,77.83
2016-01-22T19:00:40.958Z,78.31
2016-01-22T19:01:40.949Z,77.45
2016-01-22T19:02:40.937Z,77.17
2016-01-22T19:03:40.942Z,76.79
2016-01-22T19:04:40.931Z,76.51
2016-01-22T19:05:40.921Z,76.98
2016-01-22T19:06:40.955Z,76.79
2016-01-22T19:07:40.897Z,76.23
2016-01-22T19:08:40.901Z,75.85
2016-01-22T19:09:40.905Z,75.66
2016-01-22T19:10:40.879Z,75.28
2016-01-22T19:11:40.868Z,75.76
2016-01-22T19:12:40.856Z,75.85
2016-01-22T19:13:40.861Z,75.85
2016-01-22T19:14:40.849Z,76.14
2016-01-22T19:15:40.851Z,75.47
2016-01-22T19:16:40.828Z,74.62
2016-01-22T19:17:40.830Z,74.71
2016-01-22T19:18:40.818Z,74.62
2016-01-22T19:19:40.883Z,74.71
2016-01-22T19:20:40.842Z,74.71
2016-01-22T19:21:40.846Z,75.28
2016-01-22T19:22:40.787Z,75.57
2016-01-22T19:23:40.777Z,75
2016-01-22T19:24:40.794Z,75.38
2016-01-22T19:25:40.768Z,75.38
2016-01-22T19:26:40.757Z,75.47
2016-01-22T19:27:40.760Z,75.47
2016-01-22T19:28:40.764Z,74.53
2016-01-22T19:29:40.753Z,74.62
2016-01-22T19:30:40.756Z,74.81
2016-01-22T19:31:40.730Z,74.43
2016-01-22T19:32:40.720Z,74.81
2016-01-22T19:33:40.708Z,74.9
2016-01-22T19:34:40.711Z,75.09
2016-01-22T19:35:40.701Z,74.62
2016-01-22T19:36:40.690Z,75.19
2016-01-22T19:37:40.679Z,75.28
2016-01-22T19:38:40.666Z,74.43
2016-01-22T19:39:40.670Z,74.81
2016-01-22T19:40:40.502Z,74.71
2016-01-22T19:41:40.649Z,74.34
2016-01-22T19:42:40.638Z,73.96
2016-01-22T19:43:41.016Z,74.53
2016-01-22T19:44:40.629Z,74.62
2016-01-22T19:45:40.647Z,74.24
2016-01-22T19:46:40.618Z,73.96
2016-01-22T19:47:40.608Z,74.05
2016-01-22T19:48:40.956Z,73.58
2016-01-22T19:49:40.602Z,74.05
2016-01-22T19:50:40.590Z,73.58
2016-01-22T19:51:40.594Z,73.49
2016-01-22T19:52:40.566Z,73.49
2016-01-22T19:53:40.569Z,73.68
2016-01-22T19:54:40.559Z,73.86
2016-01-22T19:55:40.599Z,73.86
2016-01-22T19:56:40.541Z,73.68
2016-01-22T19:57:40.529Z,73.58
2016-01-22T19:58:40.534Z,73.39
2016-01-22T19:59:40.521Z,73.49
2016-01-22T20:00:40.509Z,73.02
2016-01-22T20:01:40.512Z,73.39
2016-01-22T20:02:40.501Z,73.39
2016-01-22T20:03:40.490Z,73.49
2016-01-22T20:04:40.478Z,73.58
2016-01-22T20:05:40.498Z,73.58
2016-01-22T20:06:40.472Z,73.3
2016-01-22T20:07:40.460Z,73.96
2016-01-22T20:08:40.447Z,73.86
2016-01-22T20:09:40.483Z,73.77
2016-01-22T20:10:40.455Z,73.3
2016-01-22T20:11:40.429Z,73.3
2016-01-22T20:12:40.417Z,73.3
2016-01-22T20:13:40.420Z,73.96
2016-01-22T20:14:40.393Z,74.43
2016-01-22T20:15:40.397Z,74.71
2016-01-22T20:16:40.417Z,74.43
2016-01-22T20:17:40.390Z,73.3
2016-01-22T20:18:40.380Z,73.3
2016-01-22T20:19:40.369Z,73.58
2016-01-22T20:20:40.356Z,74.34
2016-01-22T20:21:40.360Z,74.43
2016-01-22T20:22:40.349Z,73.96
2016-01-22T20:23:40.336Z,73.58
2016-01-22T20:24:40.327Z,73.39
2016-01-22T20:25:40.338Z,73.68
2016-01-22T20:26:40.312Z,73.96
2016-01-22T20:27:40.318Z,74.62
2016-01-22T20:28:40.306Z,74.34
2016-01-22T20:29:40.294Z,74.05
2016-01-22T20:30:40.297Z,73.77
2016-01-22T20:31:40.286Z,73.96
2016-01-22T20:32:40.274Z,74.53
2016-01-22T20:33:40.281Z,74.62
2016-01-22T20:34:40.271Z,74.71
2016-01-22T20:35:40.290Z,74.24
2016-01-22T20:36:40.264Z,74.15
2016-01-22T20:37:40.236Z,74.15
2016-01-22T20:38:40.239Z,74.24
2016-01-22T20:39:40.226Z,73.68
2016-01-22T20:40:40.231Z,73.77
2016-01-22T20:41:40.219Z,73.86
2016-01-22T20:42:40.208Z,74.9
2016-01-22T20:43:40.211Z,74.43
2016-01-22T20:44:40.200Z,74.71
2016-01-22T20:45:40.189Z,74.71
2016-01-22T20:46:40.192Z,74.34
2016-01-22T20:47:40.166Z,74.9
2016-01-22T20:48:40.171Z,75.47
2016-01-22T20:49:40.159Z,75.38
2016-01-22T20:50:40.164Z,75.28
2016-01-22T20:51:40.168Z,75.47
2016-01-22T20:52:40.141Z,75.19
2016-01-22T20:53:40.192Z,74.81
2016-01-22T20:54:40.119Z,74.62
2016-01-22T20:55:40.122Z,74.62
2016-01-22T20:56:40.114Z,74.81
2016-01-22T20:57:40.103Z,75
2016-01-22T20:58:40.106Z,74.71
2016-01-22T20:59:40.112Z,74.53
2016-01-22T21:00:40.084Z,74.62
2016-01-22T21:01:40.073Z,74.71
2016-01-22T21:02:40.515Z,74.9
2016-01-22T21:03:40.067Z,74.62
2016-01-22T21:04:40.053Z,75.09
2016-01-22T21:05:40.057Z,74.62
2016-01-22T21:06:40.030Z,74.81
2016-01-22T21:07:40.034Z,74.71
2016-01-22T21:08:40.022Z,74.53
2016-01-22T21:09:40.010Z,74.53
2016-01-22T21:10:40.014Z,75.19
2016-01-22T21:11:40.001Z,75.66
2016-01-22T21:12:40.004Z,75.28
2016-01-22T21:13:39.980Z,75.19
2016-01-22T21:14:39.984Z,74.71
2016-01-22T21:15:39.987Z,74.62
2016-01-22T21:16:39.960Z,74.81
2016-01-22T21:17:39.964Z,75.57
2016-01-22T21:18:39.953Z,75
2016-01-22T21:19:39.941Z,75.66
2016-01-22T21:20:39.930Z,75.19
2016-01-22T21:21:39.919Z,74.24
2016-01-22T21:22:39.923Z,74.34
2016-01-22T21:23:39.943Z,74.43
2016-01-22T21:24:39.917Z,74.53
2016-01-22T21:25:39.906Z,75.47
2016-01-22T21:26:39.897Z,74.71
2016-01-22T21:27:39.887Z,74.62
2016-01-22T21:28:39.890Z,74.71
2016-01-22T21:29:40.049Z,74.9
2016-01-22T21:30:39.868Z,74.62
2016-01-22T21:31:39.854Z,74.81
2016-01-22T21:32:39.857Z,74.43
2016-01-22T21:33:39.845Z,74.34
2016-01-22T21:34:39.848Z,74.71
2016-01-22T21:35:39.839Z,74.62
2016-01-22T21:36:39.827Z,74.71
2016-01-22T21:37:39.815Z,75
2016-01-22T21:38:39.818Z,74.81
2016-01-22T21:39:39.809Z,74.81
2016-01-22T21:40:39.799Z,74.43
2016-01-22T21:41:39.804Z,74.43
2016-01-22T21:42:39.777Z,74.09
2016-01-22T21:43:39.781Z,74.15
2016-01-22T21:44:39.784Z,73.96
2016-01-22T21:45:39.771Z,74.62
2016-01-22T21:46:39.759Z,74.71
2016-01-22T21:47:39.748Z,74.43
2016-01-22T21:48:39.782Z,74.05
2016-01-22T21:49:39.741Z,73.77
2016-01-22T21:50:39.732Z,73.81
2016-01-22T21:51:39.736Z,73.86
2016-01-22T21:52:39.724Z,74